sensor_id;sensor_type;location;lat;lon;timestamp;P1;durP1;ratioP1;P2;durP2;ratioP2
75634;SDS011;64227;48.724;9.104;2023-10-19T00:00:39;6.82;;;5.05;;
75634;SDS011;64227;48.724;9.104;2023-10-19T00:03:09;6.05;;;5.25;;
75634;SDS011;64227;48.724;9.104;2023-10-19T00:05:34;8.90;;;5.75;;
75634;SDS011;64227;48.724;9.104;2023-10-19T00:08:00;6.63;;;4.72;;
75634;SDS011;64227;48.724;9.104;2023-10-19T00:10:49;6.03;;;4.30;;
75634;SDS011;64227;48.724;9.104;2023-10-19T00:13:36;5.60;;;4.82;;
75634;SDS011;64227;48.724;9.104;2023-10-19T00:16:03;5.25;;;4.30;;
75634;SDS011;64227;48.724;9.104;2023-10-19T00:18:36;4.57;;;4.03;;
75634;SDS011;64227;48.724;9.104;2023-10-19T00:21:06;6.13;;;4.03;;
75634;SDS011;64227;48.724;9.104;2023-10-19T00:23:51;4.43;;;4.03;;
75634;SDS011;64227;48.724;9.104;2023-10-19T00:26:21;5.88;;;3.63;;
75634;SDS011;64227;48.724;9.104;2023-10-19T00:28:49;4.90;;;4.15;;
75634;SDS011;64227;48.724;9.104;2023-10-19T00:31:17;5.03;;;3.88;;
75634;SDS011;64227;48.724;9.104;2023-10-19T00:33:45;4.10;;;3.47;;
75634;SDS011;64227;48.724;9.104;2023-10-19T00:36:10;3.72;;;3.22;;
75634;SDS011;64227;48.724;9.104;2023-10-19T00:38:38;10.20;;;3.88;;
75634;SDS011;64227;48.724;9.104;2023-10-19T00:41:08;3.47;;;2.80;;
75634;SDS011;64227;48.724;9.104;2023-10-19T00:43:35;5.72;;;2.80;;
75634;SDS011;64227;48.724;9.104;2023-10-19T00:46:14;3.58;;;2.58;;
75634;SDS011;64227;48.724;9.104;2023-10-19T00:48:44;4.78;;;2.42;;
75634;SDS011;64227;48.724;9.104;2023-10-19T00:51:12;3.20;;;2.70;;
75634;SDS011;64227;48.724;9.104;2023-10-19T00:53:58;4.32;;;2.70;;
75634;SDS011;64227;48.724;9.104;2023-10-19T00:56:51;5.55;;;2.92;;
75634;SDS011;64227;48.724;9.104;2023-10-19T00:59:21;2.95;;;2.50;;
75634;SDS011;64227;48.724;9.104;2023-10-19T01:01:50;3.10;;;2.80;;
75634;SDS011;64227;48.724;9.104;2023-10-19T01:04:19;3.22;;;2.42;;
75634;SDS011;64227;48.724;9.104;2023-10-19T01:06:48;2.58;;;2.38;;
75634;SDS011;64227;48.724;9.104;2023-10-19T01:09:30;2.92;;;2.40;;
75634;SDS011;64227;48.724;9.104;2023-10-19T01:12:00;3.30;;;2.60;;
75634;SDS011;64227;48.724;9.104;2023-10-19T01:14:31;3.33;;;2.67;;
75634;SDS011;64227;48.724;9.104;2023-10-19T01:16:57;5.18;;;3.15;;
75634;SDS011;64227;48.724;9.104;2023-10-19T01:19:23;4.78;;;3.03;;
75634;SDS011;64227;48.724;9.104;2023-10-19T01:21:49;4.72;;;2.60;;
75634;SDS011;64227;48.724;9.104;2023-10-19T01:24:19;3.58;;;2.95;;
75634;SDS011;64227;48.724;9.104;2023-10-19T01:26:49;4.57;;;3.08;;
75634;SDS011;64227;48.724;9.104;2023-10-19T01:29:14;3.97;;;2.75;;
75634;SDS011;64227;48.724;9.104;2023-10-19T01:31:42;3.05;;;2.60;;
75634;SDS011;64227;48.724;9.104;2023-10-19T01:34:21;4.40;;;2.90;;
75634;SDS011;64227;48.724;9.104;2023-10-19T01:36:47;3.97;;;2.72;;
75634;SDS011;64227;48.724;9.104;2023-10-19T01:39:15;3.35;;;2.75;;
75634;SDS011;64227;48.724;9.104;2023-10-19T01:41:43;2.88;;;2.58;;
75634;SDS011;64227;48.724;9.104;2023-10-19T01:44:08;4.25;;;2.83;;
75634;SDS011;64227;48.724;9.104;2023-10-19T01:46:38;3.08;;;2.35;;
75634;SDS011;64227;48.724;9.104;2023-10-19T01:49:04;2.67;;;2.38;;
75634;SDS011;64227;48.724;9.104;2023-10-19T01:51:30;2.83;;;2.47;;
75634;SDS011;64227;48.724;9.104;2023-10-19T01:53:58;4.50;;;2.30;;
75634;SDS011;64227;48.724;9.104;2023-10-19T01:56:25;4.20;;;2.65;;
75634;SDS011;64227;48.724;9.104;2023-10-19T01:58:51;3.25;;;2.20;;
75634;SDS011;64227;48.724;9.104;2023-10-19T02:01:17;3.33;;;2.42;;
75634;SDS011;64227;48.724;9.104;2023-10-19T02:03:58;2.50;;;2.30;;
75634;SDS011;64227;48.724;9.104;2023-10-19T02:06:25;2.45;;;2.25;;
75634;SDS011;64227;48.724;9.104;2023-10-19T02:08:59;2.88;;;2.33;;
75634;SDS011;64227;48.724;9.104;2023-10-19T02:11:46;3.42;;;2.13;;
75634;SDS011;64227;48.724;9.104;2023-10-19T02:14:13;2.72;;;2.40;;
75634;SDS011;64227;48.724;9.104;2023-10-19T02:16:40;2.42;;;2.13;;
75634;SDS011;64227;48.724;9.104;2023-10-19T02:19:09;4.28;;;2.83;;
75634;SDS011;64227;48.724;9.104;2023-10-19T02:21:35;3.92;;;2.42;;
75634;SDS011;64227;48.724;9.104;2023-10-19T02:24:04;2.33;;;2.00;;
75634;SDS011;64227;48.724;9.104;2023-10-19T02:26:32;4.07;;;2.20;;
75634;SDS011;64227;48.724;9.104;2023-10-19T02:28:58;3.95;;;2.00;;
75634;SDS011;64227;48.724;9.104;2023-10-19T02:31:24;3.55;;;3.05;;
75634;SDS011;64227;48.724;9.104;2023-10-19T02:33:52;4.93;;;2.67;;
75634;SDS011;64227;48.724;9.104;2023-10-19T02:36:28;3.00;;;2.47;;
75634;SDS011;64227;48.724;9.104;2023-10-19T02:38:55;4.97;;;2.50;;
75634;SDS011;64227;48.724;9.104;2023-10-19T02:41:42;7.28;;;2.85;;
75634;SDS011;64227;48.724;9.104;2023-10-19T02:44:13;3.75;;;2.25;;
75634;SDS011;64227;48.724;9.104;2023-10-19T02:46:42;4.03;;;2.58;;
75634;SDS011;64227;48.724;9.104;2023-10-19T02:51:38;3.40;;;2.33;;
75634;SDS011;64227;48.724;9.104;2023-10-19T02:54:04;4.60;;;2.75;;
75634;SDS011;64227;48.724;9.104;2023-10-19T02:56:34;2.55;;;1.85;;
75634;SDS011;64227;48.724;9.104;2023-10-19T02:59:01;2.80;;;2.30;;
75634;SDS011;64227;48.724;9.104;2023-10-19T03:01:28;3.92;;;2.65;;
75634;SDS011;64227;48.724;9.104;2023-10-19T03:03:57;4.28;;;2.83;;
75634;SDS011;64227;48.724;9.104;2023-10-19T03:06:25;5.63;;;2.63;;
75634;SDS011;64227;48.724;9.104;2023-10-19T03:08:56;2.50;;;2.00;;
75634;SDS011;64227;48.724;9.104;2023-10-19T03:11:26;4.20;;;2.60;;
75634;SDS011;64227;48.724;9.104;2023-10-19T03:13:52;2.65;;;2.45;;
75634;SDS011;64227;48.724;9.104;2023-10-19T03:16:18;3.35;;;2.47;;
75634;SDS011;64227;48.724;9.104;2023-10-19T03:18:45;2.92;;;1.90;;
75634;SDS011;64227;48.724;9.104;2023-10-19T03:21:10;2.20;;;2.00;;
75634;SDS011;64227;48.724;9.104;2023-10-19T03:23:36;2.65;;;2.45;;
75634;SDS011;64227;48.724;9.104;2023-10-19T03:26:02;2.40;;;2.20;;
75634;SDS011;64227;48.724;9.104;2023-10-19T03:28:49;2.35;;;2.15;;
75634;SDS011;64227;48.724;9.104;2023-10-19T03:31:20;2.58;;;2.38;;
75634;SDS011;64227;48.724;9.104;2023-10-19T03:33:46;4.07;;;2.47;;
75634;SDS011;64227;48.724;9.104;2023-10-19T03:36:14;2.90;;;2.55;;
75634;SDS011;64227;48.724;9.104;2023-10-19T03:38:40;4.07;;;2.97;;
75634;SDS011;64227;48.724;9.104;2023-10-19T03:41:06;3.53;;;2.45;;
75634;SDS011;64227;48.724;9.104;2023-10-19T03:43:33;2.90;;;2.58;;
75634;SDS011;64227;48.724;9.104;2023-10-19T03:46:01;2.45;;;2.25;;
75634;SDS011;64227;48.724;9.104;2023-10-19T03:48:31;3.85;;;2.47;;
75634;SDS011;64227;48.724;9.104;2023-10-19T03:51:03;2.90;;;2.50;;
75634;SDS011;64227;48.724;9.104;2023-10-19T03:53:29;3.28;;;2.38;;
75634;SDS011;64227;48.724;9.104;2023-10-19T03:55:55;4.60;;;2.90;;
75634;SDS011;64227;48.724;9.104;2023-10-19T03:58:21;2.95;;;2.45;;
75634;SDS011;64227;48.724;9.104;2023-10-19T04:00:47;3.15;;;2.35;;
75634;SDS011;64227;48.724;9.104;2023-10-19T04:03:14;3.58;;;2.80;;
75634;SDS011;64227;48.724;9.104;2023-10-19T04:05:40;3.53;;;2.65;;
75634;SDS011;64227;48.724;9.104;2023-10-19T04:08:06;3.95;;;2.50;;
75634;SDS011;64227;48.724;9.104;2023-10-19T04:10:45;3.08;;;2.10;;
75634;SDS011;64227;48.724;9.104;2023-10-19T04:13:33;2.88;;;2.53;;
75634;SDS011;64227;48.724;9.104;2023-10-19T04:16:02;2.75;;;2.42;;
75634;SDS011;64227;48.724;9.104;2023-10-19T04:18:27;2.97;;;2.10;;
75634;SDS011;64227;48.724;9.104;2023-10-19T04:20:53;3.60;;;2.65;;
75634;SDS011;64227;48.724;9.104;2023-10-19T04:23:18;3.70;;;2.78;;
75634;SDS011;64227;48.724;9.104;2023-10-19T04:25:46;3.38;;;2.38;;
75634;SDS011;64227;48.724;9.104;2023-10-19T04:28:11;2.53;;;2.20;;
75634;SDS011;64227;48.724;9.104;2023-10-19T04:30:38;2.30;;;2.10;;
75634;SDS011;64227;48.724;9.104;2023-10-19T04:33:04;3.13;;;2.28;;
75634;SDS011;64227;48.724;9.104;2023-10-19T04:35:34;3.25;;;2.33;;
75634;SDS011;64227;48.724;9.104;2023-10-19T04:37:59;2.28;;;2.08;;
75634;SDS011;64227;48.724;9.104;2023-10-19T04:40:24;3.58;;;2.30;;
75634;SDS011;64227;48.724;9.104;2023-10-19T04:42:50;2.53;;;1.95;;
75634;SDS011;64227;48.724;9.104;2023-10-19T04:45:16;2.22;;;1.83;;
75634;SDS011;64227;48.724;9.104;2023-10-19T04:47:42;2.80;;;2.50;;
75634;SDS011;64227;48.724;9.104;2023-10-19T04:50:08;3.38;;;2.08;;
75634;SDS011;64227;48.724;9.104;2023-10-19T04:52:36;6.63;;;2.47;;
75634;SDS011;64227;48.724;9.104;2023-10-19T04:55:02;3.75;;;2.67;;
75634;SDS011;64227;48.724;9.104;2023-10-19T04:57:28;2.90;;;2.20;;
75634;SDS011;64227;48.724;9.104;2023-10-19T04:59:53;4.97;;;2.10;;
75634;SDS011;64227;48.724;9.104;2023-10-19T05:02:18;2.28;;;2.00;;
75634;SDS011;64227;48.724;9.104;2023-10-19T05:04:44;3.58;;;2.00;;
75634;SDS011;64227;48.724;9.104;2023-10-19T05:07:10;2.58;;;2.15;;
75634;SDS011;64227;48.724;9.104;2023-10-19T05:09:42;1.58;;;1.42;;
75634;SDS011;64227;48.724;9.104;2023-10-19T05:12:07;3.10;;;1.90;;
75634;SDS011;64227;48.724;9.104;2023-10-19T05:14:34;3.35;;;1.55;;
75634;SDS011;64227;48.724;9.104;2023-10-19T05:17:01;2.35;;;1.65;;
75634;SDS011;64227;48.724;9.104;2023-10-19T05:19:34;1.30;;;1.20;;
75634;SDS011;64227;48.724;9.104;2023-10-19T05:22:00;2.53;;;2.20;;
75634;SDS011;64227;48.724;9.104;2023-10-19T05:24:26;2.95;;;1.88;;
75634;SDS011;64227;48.724;9.104;2023-10-19T05:26:54;2.70;;;2.20;;
75634;SDS011;64227;48.724;9.104;2023-10-19T05:29:20;2.85;;;1.92;;
75634;SDS011;64227;48.724;9.104;2023-10-19T05:31:45;2.60;;;2.40;;
75634;SDS011;64227;48.724;9.104;2023-10-19T05:34:11;2.20;;;2.00;;
75634;SDS011;64227;48.724;9.104;2023-10-19T05:36:36;2.10;;;1.90;;
75634;SDS011;64227;48.724;9.104;2023-10-19T05:39:02;3.53;;;1.92;;
75634;SDS011;64227;48.724;9.104;2023-10-19T05:41:29;2.80;;;1.70;;
75634;SDS011;64227;48.724;9.104;2023-10-19T05:43:56;2.45;;;2.10;;
75634;SDS011;64227;48.724;9.104;2023-10-19T05:46:21;2.05;;;1.85;;
75634;SDS011;64227;48.724;9.104;2023-10-19T05:48:49;2.72;;;1.90;;
75634;SDS011;64227;48.724;9.104;2023-10-19T05:51:15;2.35;;;2.10;;
75634;SDS011;64227;48.724;9.104;2023-10-19T05:53:42;3.30;;;2.10;;
75634;SDS011;64227;48.724;9.104;2023-10-19T05:56:08;3.20;;;1.95;;
75634;SDS011;64227;48.724;9.104;2023-10-19T05:58:34;4.05;;;2.50;;
75634;SDS011;64227;48.724;9.104;2023-10-19T06:00:59;3.00;;;2.20;;
75634;SDS011;64227;48.724;9.104;2023-10-19T06:03:25;4.00;;;2.25;;
75634;SDS011;64227;48.724;9.104;2023-10-19T06:05:50;2.50;;;1.95;;
75634;SDS011;64227;48.724;9.104;2023-10-19T06:08:15;3.80;;;2.60;;
75634;SDS011;64227;48.724;9.104;2023-10-19T06:10:41;3.30;;;2.38;;
75634;SDS011;64227;48.724;9.104;2023-10-19T06:13:07;4.70;;;3.03;;
75634;SDS011;64227;48.724;9.104;2023-10-19T06:15:34;2.33;;;2.00;;
75634;SDS011;64227;48.724;9.104;2023-10-19T06:18:00;3.03;;;1.88;;
75634;SDS011;64227;48.724;9.104;2023-10-19T06:20:25;5.28;;;2.35;;
75634;SDS011;64227;48.724;9.104;2023-10-19T06:22:55;3.92;;;2.30;;
75634;SDS011;64227;48.724;9.104;2023-10-19T06:25:22;2.40;;;1.95;;
75634;SDS011;64227;48.724;9.104;2023-10-19T06:27:54;3.65;;;2.92;;
75634;SDS011;64227;48.724;9.104;2023-10-19T06:30:22;2.22;;;1.90;;
75634;SDS011;64227;48.724;9.104;2023-10-19T06:32:49;3.08;;;2.05;;
75634;SDS011;64227;48.724;9.104;2023-10-19T06:35:21;2.40;;;2.00;;
75634;SDS011;64227;48.724;9.104;2023-10-19T06:37:47;2.95;;;1.92;;
75634;SDS011;64227;48.724;9.104;2023-10-19T06:40:13;3.28;;;2.40;;
75634;SDS011;64227;48.724;9.104;2023-10-19T06:42:40;4.07;;;2.30;;
75634;SDS011;64227;48.724;9.104;2023-10-19T06:45:06;2.83;;;2.20;;
75634;SDS011;64227;48.724;9.104;2023-10-19T06:47:32;2.10;;;1.90;;
75634;SDS011;64227;48.724;9.104;2023-10-19T06:50:02;2.72;;;2.13;;
75634;SDS011;64227;48.724;9.104;2023-10-19T06:52:30;3.88;;;2.47;;
75634;SDS011;64227;48.724;9.104;2023-10-19T06:54:57;2.13;;;1.80;;
75634;SDS011;64227;48.724;9.104;2023-10-19T06:57:22;2.60;;;2.08;;
75634;SDS011;64227;48.724;9.104;2023-10-19T06:59:48;3.25;;;1.80;;
75634;SDS011;64227;48.724;9.104;2023-10-19T07:02:13;1.85;;;1.75;;
75634;SDS011;64227;48.724;9.104;2023-10-19T07:04:38;2.45;;;2.03;;
75634;SDS011;64227;48.724;9.104;2023-10-19T07:07:04;1.77;;;1.67;;
75634;SDS011;64227;48.724;9.104;2023-10-19T07:09:29;1.98;;;1.67;;
75634;SDS011;64227;48.724;9.104;2023-10-19T07:11:54;1.75;;;1.60;;
75634;SDS011;64227;48.724;9.104;2023-10-19T07:14:21;3.30;;;1.90;;
75634;SDS011;64227;48.724;9.104;2023-10-19T07:16:50;2.28;;;2.08;;
75634;SDS011;64227;48.724;9.104;2023-10-19T07:19:16;2.75;;;1.90;;
75634;SDS011;64227;48.724;9.104;2023-10-19T07:21:42;3.22;;;2.38;;
75634;SDS011;64227;48.724;9.104;2023-10-19T07:24:08;2.53;;;1.98;;
75634;SDS011;64227;48.724;9.104;2023-10-19T07:26:54;3.13;;;2.00;;
75634;SDS011;64227;48.724;9.104;2023-10-19T07:29:29;2.30;;;2.10;;
75634;SDS011;64227;48.724;9.104;2023-10-19T07:31:55;2.63;;;1.92;;
75634;SDS011;64227;48.724;9.104;2023-10-19T07:34:23;3.45;;;2.38;;
75634;SDS011;64227;48.724;9.104;2023-10-19T07:36:52;2.55;;;2.30;;
75634;SDS011;64227;48.724;9.104;2023-10-19T07:39:19;2.40;;;1.83;;
75634;SDS011;64227;48.724;9.104;2023-10-19T07:41:45;2.67;;;1.60;;
75634;SDS011;64227;48.724;9.104;2023-10-19T07:44:11;1.65;;;1.55;;
75634;SDS011;64227;48.724;9.104;2023-10-19T07:46:37;2.10;;;1.90;;
75634;SDS011;64227;48.724;9.104;2023-10-19T07:49:02;2.03;;;1.70;;
75634;SDS011;64227;48.724;9.104;2023-10-19T07:51:28;2.00;;;1.80;;
75634;SDS011;64227;48.724;9.104;2023-10-19T07:53:54;2.38;;;2.17;;
75634;SDS011;64227;48.724;9.104;2023-10-19T07:56:20;2.40;;;2.03;;
75634;SDS011;64227;48.724;9.104;2023-10-19T07:58:46;2.63;;;2.05;;
75634;SDS011;64227;48.724;9.104;2023-10-19T08:01:11;2.83;;;2.10;;
75634;SDS011;64227;48.724;9.104;2023-10-19T08:03:36;2.33;;;2.10;;
75634;SDS011;64227;48.724;9.104;2023-10-19T08:06:02;2.60;;;2.40;;
75634;SDS011;64227;48.724;9.104;2023-10-19T08:08:29;2.00;;;1.77;;
75634;SDS011;64227;48.724;9.104;2023-10-19T08:10:59;2.15;;;1.95;;
75634;SDS011;64227;48.724;9.104;2023-10-19T08:13:24;2.72;;;2.53;;
75634;SDS011;64227;48.724;9.104;2023-10-19T08:15:51;4.68;;;2.53;;
75634;SDS011;64227;48.724;9.104;2023-10-19T08:18:16;3.83;;;2.13;;
75634;SDS011;64227;48.724;9.104;2023-10-19T08:20:43;3.10;;;2.33;;
75634;SDS011;64227;48.724;9.104;2023-10-19T08:23:10;3.22;;;2.00;;
75634;SDS011;64227;48.724;9.104;2023-10-19T08:25:36;2.05;;;1.85;;
75634;SDS011;64227;48.724;9.104;2023-10-19T08:28:01;2.40;;;2.08;;
75634;SDS011;64227;48.724;9.104;2023-10-19T08:30:26;2.72;;;1.90;;
75634;SDS011;64227;48.724;9.104;2023-10-19T08:32:52;2.10;;;1.90;;
75634;SDS011;64227;48.724;9.104;2023-10-19T08:35:18;2.38;;;1.75;;
75634;SDS011;64227;48.724;9.104;2023-10-19T08:37:51;2.80;;;2.58;;
75634;SDS011;64227;48.724;9.104;2023-10-19T08:40:20;2.13;;;1.30;;
75634;SDS011;64227;48.724;9.104;2023-10-19T08:42:46;3.05;;;1.63;;
75634;SDS011;64227;48.724;9.104;2023-10-19T08:45:13;3.38;;;1.63;;
75634;SDS011;64227;48.724;9.104;2023-10-19T08:47:55;2.63;;;1.40;;
75634;SDS011;64227;48.724;9.104;2023-10-19T08:50:22;1.42;;;1.30;;
75634;SDS011;64227;48.724;9.104;2023-10-19T08:52:49;2.50;;;1.58;;
75634;SDS011;64227;48.724;9.104;2023-10-19T08:57:42;3.27;;;1.80;;
75634;SDS011;64227;48.724;9.104;2023-10-19T09:00:08;4.13;;;2.22;;
75634;SDS011;64227;48.724;9.104;2023-10-19T09:02:34;3.25;;;1.38;;
75634;SDS011;64227;48.724;9.104;2023-10-19T09:05:05;2.00;;;1.10;;
75634;SDS011;64227;48.724;9.104;2023-10-19T09:07:31;2.53;;;1.77;;
75634;SDS011;64227;48.724;9.104;2023-10-19T09:09:59;1.10;;;1.00;;
75634;SDS011;64227;48.724;9.104;2023-10-19T09:12:26;1.20;;;1.10;;
75634;SDS011;64227;48.724;9.104;2023-10-19T09:14:52;1.30;;;1.20;;
75634;SDS011;64227;48.724;9.104;2023-10-19T09:17:27;1.85;;;1.17;;
75634;SDS011;64227;48.724;9.104;2023-10-19T09:19:57;2.30;;;1.48;;
75634;SDS011;64227;48.724;9.104;2023-10-19T09:22:24;1.65;;;1.13;;
75634;SDS011;64227;48.724;9.104;2023-10-19T09:24:50;2.28;;;1.25;;
75634;SDS011;64227;48.724;9.104;2023-10-19T09:27:18;1.20;;;1.13;;
75634;SDS011;64227;48.724;9.104;2023-10-19T09:29:44;1.08;;;0.95;;
75634;SDS011;64227;48.724;9.104;2023-10-19T09:32:10;1.20;;;1.10;;
75634;SDS011;64227;48.724;9.104;2023-10-19T09:34:38;2.25;;;1.38;;
75634;SDS011;64227;48.724;9.104;2023-10-19T09:37:06;3.50;;;1.20;;
75634;SDS011;64227;48.724;9.104;2023-10-19T09:39:32;1.88;;;1.08;;
75634;SDS011;64227;48.724;9.104;2023-10-19T09:42:02;1.23;;;1.10;;
75634;SDS011;64227;48.724;9.104;2023-10-19T09:44:34;1.30;;;1.20;;
75634;SDS011;64227;48.724;9.104;2023-10-19T09:47:08;1.55;;;1.10;;
75634;SDS011;64227;48.724;9.104;2023-10-19T09:49:40;2.75;;;1.10;;
75634;SDS011;64227;48.724;9.104;2023-10-19T09:52:08;1.95;;;1.10;;
75634;SDS011;64227;48.724;9.104;2023-10-19T09:54:42;1.05;;;0.90;;
75634;SDS011;64227;48.724;9.104;2023-10-19T09:57:14;1.80;;;1.00;;
75634;SDS011;64227;48.724;9.104;2023-10-19T09:59:44;1.75;;;1.30;;
75634;SDS011;64227;48.724;9.104;2023-10-19T10:02:11;3.38;;;1.10;;
75634;SDS011;64227;48.724;9.104;2023-10-19T10:04:40;1.20;;;1.10;;
75634;SDS011;64227;48.724;9.104;2023-10-19T10:07:09;1.75;;;1.17;;
75634;SDS011;64227;48.724;9.104;2023-10-19T10:09:38;3.80;;;1.48;;
75634;SDS011;64227;48.724;9.104;2023-10-19T10:12:19;2.33;;;1.35;;
75634;SDS011;64227;48.724;9.104;2023-10-19T10:14:55;1.27;;;1.00;;
75634;SDS011;64227;48.724;9.104;2023-10-19T10:17:24;1.48;;;1.30;;
75634;SDS011;64227;48.724;9.104;2023-10-19T10:19:55;1.55;;;1.30;;
75634;SDS011;64227;48.724;9.104;2023-10-19T10:22:22;1.90;;;1.25;;
75634;SDS011;64227;48.724;9.104;2023-10-19T10:24:48;1.77;;;1.15;;
75634;SDS011;64227;48.724;9.104;2023-10-19T10:27:20;1.75;;;1.15;;
75634;SDS011;64227;48.724;9.104;2023-10-19T10:29:58;1.65;;;1.27;;
75634;SDS011;64227;48.724;9.104;2023-10-19T10:35:08;1.85;;;1.30;;
75634;SDS011;64227;48.724;9.104;2023-10-19T10:37:37;1.33;;;1.23;;
75634;SDS011;64227;48.724;9.104;2023-10-19T10:40:05;2.63;;;1.50;;
75634;SDS011;64227;48.724;9.104;2023-10-19T10:42:31;1.75;;;1.20;;
75634;SDS011;64227;48.724;9.104;2023-10-19T10:44:56;1.58;;;1.00;;
75634;SDS011;64227;48.724;9.104;2023-10-19T10:47:22;2.13;;;1.90;;
75634;SDS011;64227;48.724;9.104;2023-10-19T10:55:18;1.33;;;1.23;;
75634;SDS011;64227;48.724;9.104;2023-10-19T10:57:43;4.10;;;1.00;;
75634;SDS011;64227;48.724;9.104;2023-10-19T11:00:13;2.10;;;1.17;;
75634;SDS011;64227;48.724;9.104;2023-10-19T11:02:43;1.88;;;1.23;;
75634;SDS011;64227;48.724;9.104;2023-10-19T11:05:11;2.05;;;1.20;;
75634;SDS011;64227;48.724;9.104;2023-10-19T11:07:38;2.47;;;1.60;;
75634;SDS011;64227;48.724;9.104;2023-10-19T11:10:04;2.50;;;1.20;;
75634;SDS011;64227;48.724;9.104;2023-10-19T11:12:31;1.60;;;1.40;;
75634;SDS011;64227;48.724;9.104;2023-10-19T11:14:58;1.25;;;1.15;;
75634;SDS011;64227;48.724;9.104;2023-10-19T11:17:24;2.17;;;1.10;;
75634;SDS011;64227;48.724;9.104;2023-10-19T11:19:56;1.73;;;1.60;;
75634;SDS011;64227;48.724;9.104;2023-10-19T11:22:23;1.50;;;1.40;;
75634;SDS011;64227;48.724;9.104;2023-10-19T11:25:20;2.30;;;1.42;;
75634;SDS011;64227;48.724;9.104;2023-10-19T11:27:47;1.70;;;1.27;;
75634;SDS011;64227;48.724;9.104;2023-10-19T11:30:13;3.22;;;1.75;;
75634;SDS011;64227;48.724;9.104;2023-10-19T11:32:43;1.83;;;1.60;;
75634;SDS011;64227;48.724;9.104;2023-10-19T11:35:11;4.78;;;2.67;;
75634;SDS011;64227;48.724;9.104;2023-10-19T11:37:49;2.30;;;1.90;;
75634;SDS011;64227;48.724;9.104;2023-10-19T11:40:15;1.50;;;1.40;;
75634;SDS011;64227;48.724;9.104;2023-10-19T11:42:41;2.55;;;1.58;;
75634;SDS011;64227;48.724;9.104;2023-10-19T11:45:16;1.48;;;1.20;;
75634;SDS011;64227;48.724;9.104;2023-10-19T11:47:45;1.90;;;1.70;;
75634;SDS011;64227;48.724;9.104;2023-10-19T11:50:11;2.40;;;1.70;;
75634;SDS011;64227;48.724;9.104;2023-10-19T11:52:44;2.08;;;1.55;;
75634;SDS011;64227;48.724;9.104;2023-10-19T11:55:13;2.55;;;1.88;;
75634;SDS011;64227;48.724;9.104;2023-10-19T11:57:39;1.70;;;1.60;;
75634;SDS011;64227;48.724;9.104;2023-10-19T12:00:05;2.17;;;1.95;;
75634;SDS011;64227;48.724;9.104;2023-10-19T12:02:34;1.83;;;1.70;;
75634;SDS011;64227;48.724;9.104;2023-10-19T12:07:38;2.47;;;1.58;;
75634;SDS011;64227;48.724;9.104;2023-10-19T12:10:06;2.50;;;2.20;;
75634;SDS011;64227;48.724;9.104;2023-10-19T12:12:35;3.10;;;1.60;;
75634;SDS011;64227;48.724;9.104;2023-10-19T12:15:02;2.97;;;2.10;;
75634;SDS011;64227;48.724;9.104;2023-10-19T12:17:31;1.88;;;1.75;;
75634;SDS011;64227;48.724;9.104;2023-10-19T12:19:57;3.05;;;2.30;;
75634;SDS011;64227;48.724;9.104;2023-10-19T12:22:22;4.53;;;2.45;;
75634;SDS011;64227;48.724;9.104;2023-10-19T12:24:49;2.83;;;2.30;;
75634;SDS011;64227;48.724;9.104;2023-10-19T12:27:16;3.00;;;2.25;;
75634;SDS011;64227;48.724;9.104;2023-10-19T12:29:43;2.40;;;2.00;;
75634;SDS011;64227;48.724;9.104;2023-10-19T12:32:24;2.15;;;1.80;;
75634;SDS011;64227;48.724;9.104;2023-10-19T12:34:49;3.17;;;2.50;;
75634;SDS011;64227;48.724;9.104;2023-10-19T12:37:18;2.05;;;1.85;;
75634;SDS011;64227;48.724;9.104;2023-10-19T12:39:44;2.30;;;2.10;;
75634;SDS011;64227;48.724;9.104;2023-10-19T12:42:16;3.17;;;2.35;;
75634;SDS011;64227;48.724;9.104;2023-10-19T12:44:41;3.53;;;2.63;;
75634;SDS011;64227;48.724;9.104;2023-10-19T12:47:08;3.08;;;2.35;;
75634;SDS011;64227;48.724;9.104;2023-10-19T12:49:36;2.10;;;1.92;;
75634;SDS011;64227;48.724;9.104;2023-10-19T12:52:06;1.88;;;1.70;;
75634;SDS011;64227;48.724;9.104;2023-10-19T12:54:32;2.75;;;1.98;;
75634;SDS011;64227;48.724;9.104;2023-10-19T13:00:11;2.70;;;1.95;;
75634;SDS011;64227;48.724;9.104;2023-10-19T13:12:40;4.57;;;2.00;;
75634;SDS011;64227;48.724;9.104;2023-10-19T13:15:07;3.92;;;2.38;;
75634;SDS011;64227;48.724;9.104;2023-10-19T13:17:40;5.15;;;2.20;;
75634;SDS011;64227;48.724;9.104;2023-10-19T13:20:17;2.63;;;2.00;;
75634;SDS011;64227;48.724;9.104;2023-10-19T13:22:51;2.55;;;2.35;;
75634;SDS011;64227;48.724;9.104;2023-10-19T13:25:17;4.40;;;2.47;;
75634;SDS011;64227;48.724;9.104;2023-10-19T13:27:43;3.15;;;2.20;;
75634;SDS011;64227;48.724;9.104;2023-10-19T13:30:09;2.35;;;2.15;;
75634;SDS011;64227;48.724;9.104;2023-10-19T13:32:54;2.85;;;2.60;;
75634;SDS011;64227;48.724;9.104;2023-10-19T13:35:22;2.72;;;2.35;;
75634;SDS011;64227;48.724;9.104;2023-10-19T13:41:29;2.60;;;2.40;;
75634;SDS011;64227;48.724;9.104;2023-10-19T13:43:54;2.42;;;2.15;;
75634;SDS011;64227;48.724;9.104;2023-10-19T13:46:23;3.72;;;2.83;;
75634;SDS011;64227;48.724;9.104;2023-10-19T13:48:49;2.38;;;2.17;;
75634;SDS011;64227;48.724;9.104;2023-10-19T13:51:24;3.20;;;2.65;;
75634;SDS011;64227;48.724;9.104;2023-10-19T13:53:58;2.30;;;2.08;;
75634;SDS011;64227;48.724;9.104;2023-10-19T13:56:29;2.67;;;2.15;;
75634;SDS011;64227;48.724;9.104;2023-10-19T13:58:57;4.10;;;2.25;;
75634;SDS011;64227;48.724;9.104;2023-10-19T14:01:22;2.28;;;2.08;;
75634;SDS011;64227;48.724;9.104;2023-10-19T14:03:51;1.90;;;1.70;;
75634;SDS011;64227;48.724;9.104;2023-10-19T14:08:58;2.47;;;1.50;;
75634;SDS011;64227;48.724;9.104;2023-10-19T14:11:43;1.95;;;1.70;;
75634;SDS011;64227;48.724;9.104;2023-10-19T14:14:09;2.50;;;2.20;;
75634;SDS011;64227;48.724;9.104;2023-10-19T14:16:36;2.80;;;2.30;;
75634;SDS011;64227;48.724;9.104;2023-10-19T14:19:01;2.65;;;2.35;;
75634;SDS011;64227;48.724;9.104;2023-10-19T14:21:30;2.13;;;2.00;;
75634;SDS011;64227;48.724;9.104;2023-10-19T14:23:57;2.53;;;2.05;;
75634;SDS011;64227;48.724;9.104;2023-10-19T14:26:25;2.00;;;1.80;;
75634;SDS011;64227;48.724;9.104;2023-10-19T14:28:51;3.50;;;2.30;;
75634;SDS011;64227;48.724;9.104;2023-10-19T14:31:16;2.20;;;1.90;;
75634;SDS011;64227;48.724;9.104;2023-10-19T14:33:41;2.78;;;2.13;;
75634;SDS011;64227;48.724;9.104;2023-10-19T14:36:08;2.42;;;2.08;;
75634;SDS011;64227;48.724;9.104;2023-10-19T14:38:34;2.45;;;2.00;;
75634;SDS011;64227;48.724;9.104;2023-10-19T14:41:01;2.55;;;2.35;;
75634;SDS011;64227;48.724;9.104;2023-10-19T14:43:26;2.95;;;2.13;;
75634;SDS011;64227;48.724;9.104;2023-10-19T14:45:54;2.88;;;2.65;;
75634;SDS011;64227;48.724;9.104;2023-10-19T14:48:19;5.03;;;3.47;;
75634;SDS011;64227;48.724;9.104;2023-10-19T14:50:45;3.40;;;3.00;;
75634;SDS011;64227;48.724;9.104;2023-10-19T14:53:12;3.20;;;2.90;;
75634;SDS011;64227;48.724;9.104;2023-10-19T14:55:38;3.33;;;2.90;;
75634;SDS011;64227;48.724;9.104;2023-10-19T14:58:03;5.72;;;3.45;;
75634;SDS011;64227;48.724;9.104;2023-10-19T15:00:31;2.95;;;2.75;;
75634;SDS011;64227;48.724;9.104;2023-10-19T15:03:02;3.45;;;3.00;;
75634;SDS011;64227;48.724;9.104;2023-10-19T15:05:32;4.60;;;3.55;;
75634;SDS011;64227;48.724;9.104;2023-10-19T15:08:00;4.95;;;4.15;;
75634;SDS011;64227;48.724;9.104;2023-10-19T15:10:27;7.78;;;5.43;;
75634;SDS011;64227;48.724;9.104;2023-10-19T15:12:53;5.75;;;5.15;;
75634;SDS011;64227;48.724;9.104;2023-10-19T15:15:19;8.60;;;6.57;;
75634;SDS011;64227;48.724;9.104;2023-10-19T15:17:46;6.47;;;5.25;;
75634;SDS011;64227;48.724;9.104;2023-10-19T15:20:13;6.03;;;5.25;;
75634;SDS011;64227;48.724;9.104;2023-10-19T15:22:42;6.15;;;5.15;;
75634;SDS011;64227;48.724;9.104;2023-10-19T15:25:12;6.22;;;5.63;;
75634;SDS011;64227;48.724;9.104;2023-10-19T15:27:41;5.90;;;5.22;;
75634;SDS011;64227;48.724;9.104;2023-10-19T15:30:08;9.40;;;6.25;;